createdAt,value
2023-08-17T00:00:49.763Z,100264.59
2023-08-17T00:02:52.345Z,100263.56
2023-08-17T00:04:55.321Z,100254.34
2023-08-17T00:06:57.850Z,100259.38
2023-08-17T00:09:00.414Z,100259.81
2023-08-17T00:11:02.938Z,100247.59
2023-08-17T00:13:05.827Z,100256.44
2023-08-17T00:15:08.642Z,100259.13
2023-08-17T00:17:11.163Z,100262.69
2023-08-17T00:19:16.620Z,100258.06
2023-08-17T00:21:19.345Z,100255.25
2023-08-17T00:23:22.515Z,100257.94
2023-08-17T00:25:25.134Z,100264.63
2023-08-17T00:27:27.956Z,100258.72
2023-08-17T00:29:30.581Z,100267.91
2023-08-17T00:31:33.100Z,100263.22
2023-08-17T00:33:35.783Z,100269.09
2023-08-17T00:35:38.287Z,100268.19
2023-08-17T00:37:40.851Z,100274.41
2023-08-17T00:39:43.351Z,100266.41
2023-08-17T00:41:45.881Z,100273.50
2023-08-17T00:43:48.383Z,100267.34
2023-08-17T00:45:51.073Z,100270.47
2023-08-17T00:47:56.204Z,100272.13
2023-08-17T00:49:59.843Z,100272.06
2023-08-17T00:52:03.968Z,100274.53
2023-08-17T00:54:06.617Z,100272.59
2023-08-17T00:56:10.067Z,100277.16
2023-08-17T00:58:13.422Z,100280.47
2023-08-17T01:00:18.004Z,100282.72
2023-08-17T01:02:22.843Z,100272.41
2023-08-17T01:04:25.509Z,100281.16
2023-08-17T01:06:28.051Z,100283.63
2023-08-17T01:08:32.073Z,100276.91
2023-08-17T01:11:16.029Z,100287.97
2023-08-17T01:13:26.294Z,100280.78
2023-08-17T01:15:47.165Z,100288.28
2023-08-17T01:18:21.614Z,100294.50
2023-08-17T01:20:25.197Z,100285.63
2023-08-17T01:22:29.936Z,100287.50
2023-08-17T01:24:32.559Z,100292.66
2023-08-17T01:26:35.174Z,100300.81
2023-08-17T01:28:37.673Z,100295.94
2023-08-17T01:31:03.509Z,100305.34
2023-08-17T01:33:10.165Z,100299.66
2023-08-17T01:35:21.303Z,100300.03
2023-08-17T01:37:28.513Z,100300.41
2023-08-17T01:39:39.432Z,100308.28
2023-08-17T01:41:44.435Z,100300.31
2023-08-17T01:43:49.235Z,100296.06
2023-08-17T01:45:52.785Z,100305.25
2023-08-17T01:47:57.395Z,100300.03
2023-08-17T01:50:01.564Z,100306.50
2023-08-17T01:52:04.223Z,100311.28
2023-08-17T01:54:07.153Z,100305.38
2023-08-17T01:56:09.631Z,100303.88
2023-08-17T01:58:12.127Z,100310.16
2023-08-17T02:00:15.290Z,100309.69
2023-08-17T02:02:18.826Z,100307.34
2023-08-17T02:04:21.412Z,100314.66
2023-08-17T02:06:23.890Z,100318.94
2023-08-17T02:08:26.677Z,100304.09
2023-08-17T02:10:29.252Z,100304.47
2023-08-17T02:12:31.758Z,100308.41
2023-08-17T02:14:34.405Z,100313.16
2023-08-17T02:16:37.381Z,100312.50
2023-08-17T02:18:39.878Z,100312.22
2023-08-17T02:20:42.737Z,100317.00
2023-08-17T02:22:45.326Z,100316.38
2023-08-17T02:24:48.221Z,100323.00
2023-08-17T02:26:50.737Z,100325.06
2023-08-17T02:28:53.266Z,100327.50
2023-08-17T02:30:59.892Z,100322.44
2023-08-17T02:33:02.552Z,100329.91
2023-08-17T02:35:05.354Z,100323.16
2023-08-17T02:37:07.888Z,100327.09
2023-08-17T02:39:10.614Z,100322.69
2023-08-17T02:41:13.098Z,100325.63
2023-08-17T02:43:15.612Z,100319.69
2023-08-17T02:45:18.409Z,100325.28
2023-08-17T02:47:20.973Z,100322.09
2023-08-17T02:49:23.497Z,100315.34
2023-08-17T02:51:26.100Z,100319.09
2023-08-17T02:53:28.604Z,100314.59
2023-08-17T02:55:31.111Z,100314.78
2023-08-17T02:57:33.763Z,100312.69
2023-08-17T02:59:36.259Z,100317.31
2023-08-17T03:01:38.779Z,100314.59
2023-08-17T03:03:41.776Z,100312.06
2023-08-17T03:05:44.380Z,100312.91
2023-08-17T03:07:47.023Z,100308.53
2023-08-17T03:09:49.570Z,100306.00
2023-08-17T03:11:52.185Z,100310.56
2023-08-17T03:14:01.509Z,100306.00
2023-08-17T03:16:04.201Z,100308.88
2023-08-17T03:18:06.753Z,100309.06
2023-08-17T03:20:09.822Z,100305.03
2023-08-17T03:22:12.454Z,100309.44
2023-08-17T03:24:14.961Z,100313.81
2023-08-17T03:26:17.818Z,100307.56
2023-08-17T03:28:20.321Z,100307.91
2023-08-17T03:30:22.785Z,100310.44
2023-08-17T03:32:25.360Z,100311.66
2023-08-17T03:34:27.865Z,100309.13
2023-08-17T03:36:30.410Z,100313.59
2023-08-17T03:38:32.911Z,100315.94
2023-08-17T03:40:35.538Z,100305.28
2023-08-17T03:42:38.063Z,100302.28
2023-08-17T03:44:40.784Z,100305.66
2023-08-17T03:46:43.381Z,100315.00
2023-08-17T03:48:45.973Z,100299.09
2023-08-17T03:50:48.641Z,100301.81
2023-08-17T03:52:51.173Z,100298.06
2023-08-17T03:54:53.739Z,100288.97
2023-08-17T03:56:56.280Z,100297.09
2023-08-17T03:58:59.049Z,100296.44
2023-08-17T04:01:01.528Z,100292.72
2023-08-17T04:03:04.233Z,100298.31
2023-08-17T04:05:07.266Z,100290.53
2023-08-17T04:07:09.993Z,100301.19
2023-08-17T04:09:12.757Z,100299.88
2023-08-17T04:11:15.367Z,100299.03
2023-08-17T04:13:17.907Z,100297.34
2023-08-17T04:15:20.441Z,100296.53
2023-08-17T04:17:23.383Z,100301.09
2023-08-17T04:19:26.100Z,100297.56
2023-08-17T04:21:28.724Z,100301.47
2023-08-17T04:23:32.114Z,100300.13
2023-08-17T04:25:35.183Z,100292.19
2023-08-17T04:27:37.714Z,100292.19
2023-08-17T04:29:40.319Z,100292.53
2023-08-17T04:31:43.018Z,100286.28
2023-08-17T04:33:45.582Z,100291.53
2023-08-17T04:35:51.244Z,100295.56
2023-08-17T04:37:54.332Z,100284.81
2023-08-17T04:39:56.925Z,100283.13
2023-08-17T04:42:00.167Z,100277.72
2023-08-17T04:44:02.885Z,100285.16
2023-08-17T04:46:05.910Z,100278.41
2023-08-17T04:48:09.052Z,100282.81
2023-08-17T04:50:11.993Z,100275.72
2023-08-17T04:52:14.526Z,100277.25
2023-08-17T04:54:17.082Z,100275.41
2023-08-17T04:56:19.595Z,100277.09
2023-08-17T04:58:22.132Z,100275.94
2023-08-17T05:00:29.597Z,100283.69
2023-08-17T05:02:32.457Z,100278.63
2023-08-17T05:04:35.028Z,100279.47
2023-08-17T05:06:38.662Z,100281.53
2023-08-17T05:08:41.187Z,100280.84
2023-08-17T05:10:43.698Z,100282.63
2023-08-17T05:12:46.366Z,100281.59
2023-08-17T05:14:48.879Z,100277.19
2023-08-17T05:16:51.421Z,100280.94
2023-08-17T05:18:54.089Z,100276.53
2023-08-17T05:20:56.653Z,100269.78
2023-08-17T05:22:59.184Z,100283.69
2023-08-17T05:25:01.802Z,100275.91
2023-08-17T05:27:04.435Z,100268.13
2023-08-17T05:29:06.941Z,100269.81
2023-08-17T05:31:10.272Z,100265.59
2023-08-17T05:33:12.881Z,100268.13
2023-08-17T05:35:15.546Z,100253.28
2023-08-17T05:37:18.460Z,100265.81
2023-08-17T05:39:21.166Z,100260.56
2023-08-17T05:41:23.673Z,100255.31
2023-08-17T05:43:26.660Z,100252.63
2023-08-17T05:45:29.625Z,100255.00
2023-08-17T05:47:32.203Z,100249.09
2023-08-17T05:49:34.724Z,100247.91
2023-08-17T05:51:37.232Z,100249.94
2023-08-17T05:53:39.725Z,100257.25
2023-08-17T05:55:42.303Z,100253.06
2023-08-17T05:57:44.811Z,100254.75
2023-08-17T05:59:47.336Z,100254.75
2023-08-17T06:01:49.867Z,100250.16
2023-08-17T06:03:52.554Z,100256.63
2023-08-17T06:05:55.287Z,100255.25
2023-08-17T06:07:58.671Z,100256.44
2023-08-17T06:10:01.783Z,100262.19
2023-08-17T06:12:04.582Z,100251.72
2023-08-17T06:14:07.498Z,100257.31
2023-08-17T06:16:10.021Z,100256.47
2023-08-17T06:18:12.575Z,100253.44
2023-08-17T06:20:16.024Z,100251.41
2023-08-17T06:22:18.543Z,100260.41
2023-08-17T06:24:21.124Z,100252.13
2023-08-17T06:26:23.660Z,100259.91
2023-08-17T06:28:27.460Z,100256.53
2023-08-17T06:30:30.026Z,100261.09
2023-08-17T06:32:32.858Z,100253.16
2023-08-17T06:34:37.780Z,100258.41
2023-08-17T06:36:41.229Z,100256.88
2023-08-17T06:38:44.279Z,100253.22
2023-08-17T06:40:47.846Z,100252.50
2023-08-17T06:42:50.485Z,100263.31
2023-08-17T06:44:53.047Z,100258.28
2023-08-17T06:46:55.744Z,100268.09
2023-08-17T06:48:58.231Z,100268.44
2023-08-17T06:51:00.780Z,100266.75
2023-08-17T06:53:04.026Z,100267.25
2023-08-17T06:55:06.749Z,100262.69
2023-08-17T06:57:09.264Z,100256.78
2023-08-17T06:59:11.817Z,100271.81
2023-08-17T07:01:14.287Z,100263.03
2023-08-17T07:03:17.823Z,100258.97
2023-08-17T07:05:20.441Z,100261.50
2023-08-17T07:07:22.934Z,100259.31
2023-08-17T07:09:25.551Z,100263.72
2023-08-17T07:11:28.307Z,100255.09
2023-08-17T07:13:30.785Z,100260.31
2023-08-17T07:15:33.643Z,100264.03
2023-08-17T07:17:36.325Z,100263.56
2023-08-17T07:20:04.569Z,100266.09
2023-08-17T07:22:01.320Z,100255.13
2023-08-17T07:24:16.867Z,100261.03
2023-08-17T07:26:20.577Z,100266.63
2023-08-17T07:28:23.136Z,100255.97
2023-08-17T07:30:25.758Z,100254.44
2023-08-17T07:32:28.290Z,100256.16
2023-08-17T07:34:32.700Z,100255.81
2023-08-17T07:36:35.659Z,100251.25
2023-08-17T07:38:38.154Z,100250.41
2023-08-17T07:40:40.757Z,100244.50
2023-08-17T07:42:43.325Z,100250.75
2023-08-17T07:44:45.971Z,100242.97
2023-08-17T07:46:48.532Z,100253.59
2023-08-17T07:48:51.115Z,100255.59
2023-08-17T07:50:54.531Z,100252.22
2023-08-17T07:52:57.100Z,100250.53
2023-08-17T07:54:59.650Z,100243.47
2023-08-17T07:57:02.304Z,100258.00
2023-08-17T07:59:05.096Z,100250.91
2023-08-17T08:01:07.641Z,100255.81
2023-08-17T08:03:11.304Z,100253.94
2023-08-17T08:05:15.721Z,100263.06
2023-08-17T08:07:18.212Z,100259.84
2023-08-17T08:09:20.704Z,100262.03
2023-08-17T08:11:24.166Z,100260.34
2023-08-17T08:13:26.714Z,100263.91
2023-08-17T08:15:29.213Z,100264.75
2023-08-17T08:17:31.979Z,100269.31
2023-08-17T08:19:34.689Z,100267.09
2023-08-17T08:21:37.187Z,100272.50
2023-08-17T08:23:39.863Z,100260.72
2023-08-17T08:25:42.680Z,100265.25
2023-08-17T08:27:45.174Z,100259.03
2023-08-17T08:29:47.971Z,100267.81
2023-08-17T08:31:50.485Z,100257.00
2023-08-17T08:33:54.454Z,100264.44
2023-08-17T08:35:56.978Z,100261.03
2023-08-17T08:38:01.260Z,100261.38
2023-08-17T08:40:03.870Z,100253.59
2023-08-17T08:42:06.427Z,100254.63
2023-08-17T08:44:09.302Z,100249.22
2023-08-17T08:46:13.497Z,100247.84
2023-08-17T08:48:19.847Z,100250.88
2023-08-17T08:50:23.690Z,100257.31
2023-08-17T08:52:35.495Z,100254.28
2023-08-17T08:54:39.668Z,100256.81
2023-08-17T08:56:48.333Z,100256.81
2023-08-17T08:58:54.609Z,100253.78
2023-08-17T09:01:00.185Z,100252.09
2023-08-17T09:03:05.353Z,100256.78
2023-08-17T09:05:10.759Z,100247.16
2023-08-17T09:07:16.353Z,100258.97
2023-08-17T09:09:19.718Z,100251.88
2023-08-17T09:11:22.234Z,100249.19
2023-08-17T09:13:24.990Z,100257.63
2023-08-17T09:15:27.493Z,100252.38
2023-08-17T09:17:30.253Z,100248.84
2023-08-17T09:19:35.995Z,100252.91
2023-08-17T09:21:38.503Z,100239.41
2023-08-17T09:23:41.646Z,100255.59
2023-08-17T09:25:45.943Z,100247.50
2023-08-17T09:27:48.430Z,100248.34
2023-08-17T09:29:51.090Z,100247.69
2023-08-17T09:31:53.586Z,100250.38
2023-08-17T09:33:56.226Z,100240.06
2023-08-17T09:36:00.521Z,100247.16
2023-08-17T09:38:03.192Z,100240.06
2023-08-17T09:40:05.975Z,100246.81
2023-08-17T09:42:08.519Z,100249.50
2023-08-17T09:44:11.113Z,100240.84
2023-08-17T09:46:13.785Z,100242.56
2023-08-17T09:48:19.016Z,100238.72
2023-08-17T09:50:24.646Z,100241.72
2023-08-17T09:52:27.332Z,100246.13
2023-08-17T09:54:33.121Z,100250.13
2023-08-17T09:56:36.488Z,100253.50
2023-08-17T09:58:40.547Z,100250.81
2023-08-17T10:00:52.104Z,100258.22
2023-08-17T10:02:54.822Z,100258.22
2023-08-17T10:05:00.121Z,100255.69
2023-08-17T10:07:05.689Z,100254.50
2023-08-17T10:09:11.836Z,100249.59
2023-08-17T10:11:16.589Z,100252.31
2023-08-17T10:13:40.178Z,100257.53
2023-08-17T10:16:10.265Z,100256.03
2023-08-17T10:18:33.530Z,100251.81
2023-08-17T10:20:39.453Z,100250.13
2023-08-17T10:22:53.497Z,100264.63
2023-08-17T10:24:57.350Z,100264.09
2023-08-17T10:27:00.625Z,100267.66
2023-08-17T10:29:13.475Z,100266.97
2023-08-17T10:31:18.686Z,100272.34
2023-08-17T10:33:22.295Z,100274.72
2023-08-17T10:35:25.504Z,100275.75
2023-08-17T10:37:28.421Z,100271.50
2023-08-17T10:39:32.024Z,100271.34
2023-08-17T10:41:50.401Z,100278.44
2023-08-17T10:44:00.162Z,100266.28
2023-08-17T10:46:21.185Z,100268.97
2023-08-17T10:48:28.074Z,100260.34
2023-08-17T10:50:30.705Z,100266.28
2023-08-17T10:52:39.127Z,100270.66
2023-08-17T10:54:43.336Z,100275.75
2023-08-17T10:56:47.185Z,100280.44
2023-08-17T10:58:53.197Z,100283.16
2023-08-17T11:00:58.626Z,100273.53
2023-08-17T11:03:02.178Z,100283.16
2023-08-17T11:05:05.942Z,100274.38
2023-08-17T11:07:17.624Z,100286.69
2023-08-17T11:09:23.784Z,100288.38
2023-08-17T11:11:26.362Z,100286.53
2023-08-17T11:13:33.575Z,100288.75
2023-08-17T11:15:44.180Z,100293.28
2023-08-17T11:17:46.728Z,100286.22
2023-08-17T11:19:52.456Z,100278.97
2023-08-17T11:21:55.396Z,100275.41
2023-08-17T11:23:59.369Z,100279.66
2023-08-17T11:26:02.493Z,100271.72
2023-08-17T11:28:07.968Z,100272.03
2023-08-17T11:30:11.485Z,100276.94
2023-08-17T11:32:14.263Z,100269.69
2023-08-17T11:34:17.131Z,100286.38
2023-08-17T11:36:19.720Z,100282.19
2023-08-17T11:38:22.271Z,100275.75
2023-08-17T11:40:26.851Z,100282.66
2023-08-17T11:42:29.736Z,100271.72
2023-08-17T11:44:32.658Z,100283.50
2023-08-17T11:46:35.602Z,100282.19
2023-08-17T11:48:38.721Z,100283.19
2023-08-17T11:50:41.295Z,100277.66
2023-08-17T11:52:46.265Z,100280.72
2023-08-17T11:54:52.237Z,100276.50
2023-08-17T11:56:55.176Z,100280.88
2023-08-17T11:58:57.664Z,100285.59
2023-08-17T12:01:00.198Z,100292.38
2023-08-17T12:03:03.004Z,100277.69
2023-08-17T12:05:09.270Z,100279.91
2023-08-17T12:07:12.651Z,100274.34
2023-08-17T12:09:18.168Z,100274.84
2023-08-17T12:11:20.755Z,100277.19
2023-08-17T12:13:34.515Z,100273.81
2023-08-17T12:15:37.208Z,100266.41
2023-08-17T12:17:47.904Z,100270.09
2023-08-17T12:19:51.913Z,100272.31
2023-08-17T12:21:54.617Z,100269.44
2023-08-17T12:23:57.234Z,100261.00
2023-08-17T12:25:59.839Z,100265.41
2023-08-17T12:28:02.672Z,100262.22
2023-08-17T12:30:05.810Z,100263.38
2023-08-17T12:32:09.153Z,100253.09
2023-08-17T12:34:11.749Z,100250.91
2023-08-17T12:36:14.305Z,100266.44
2023-08-17T12:38:16.830Z,100244.84
2023-08-17T12:40:19.527Z,100241.47
2023-08-17T12:42:22.017Z,100249.72
2023-08-17T12:44:24.669Z,100235.72
2023-08-17T12:46:32.472Z,100241.28
2023-08-17T12:48:36.769Z,100247.38
2023-08-17T12:50:43.319Z,100240.09
2023-08-17T12:52:47.659Z,100246.50
2023-08-17T12:54:55.695Z,100239.75
2023-08-17T12:56:59.267Z,100239.09
2023-08-17T12:59:03.521Z,100236.53
2023-08-17T13:01:06.169Z,100244.16
2023-08-17T13:03:10.106Z,100244.31
2023-08-17T13:05:13.381Z,100240.25
2023-08-17T13:07:17.366Z,100231.97
2023-08-17T13:09:20.463Z,100233.28
2023-08-17T13:11:23.000Z,100230.25
2023-08-17T13:13:25.537Z,100234.63
2023-08-17T13:15:28.161Z,100220.94
2023-08-17T13:17:30.764Z,100230.41
2023-08-17T13:19:33.464Z,100225.44
2023-08-17T13:21:35.940Z,100223.41
2023-08-17T13:23:38.472Z,100225.09
2023-08-17T13:25:40.966Z,100226.78
2023-08-17T13:27:43.459Z,100230.16
2023-08-17T13:29:46.096Z,100215.63
2023-08-17T13:31:51.981Z,100222.38
2023-08-17T13:33:54.629Z,100220.03
2023-08-17T13:35:57.301Z,100233.34
2023-08-17T13:37:59.840Z,100215.56
2023-08-17T13:40:02.438Z,100221.59
2023-08-17T13:42:05.123Z,100225.47
2023-08-17T13:44:07.960Z,100218.72
2023-08-17T13:46:11.225Z,100215.34
2023-08-17T13:48:13.752Z,100208.38
2023-08-17T13:50:16.302Z,100206.81
2023-08-17T13:52:19.443Z,100201.38
2023-08-17T13:54:22.106Z,100191.31
2023-08-17T13:56:25.470Z,100196.66
2023-08-17T13:58:29.253Z,100199.69
2023-08-17T14:00:31.850Z,100191.22
2023-08-17T14:02:34.646Z,100192.50
2023-08-17T14:04:37.586Z,100188.13
2023-08-17T14:06:40.739Z,100182.72
2023-08-17T14:08:43.715Z,100184.88
2023-08-17T14:10:46.315Z,100179.03
2023-08-17T14:12:48.920Z,100178.19
2023-08-17T14:14:51.489Z,100181.84
2023-08-17T14:16:53.978Z,100184.47
2023-08-17T14:18:56.533Z,100178.09
2023-08-17T14:20:59.184Z,100181.25
2023-08-17T14:23:01.885Z,100170.59
2023-08-17T14:25:04.732Z,100177.16
2023-08-17T14:27:07.292Z,100171.63
2023-08-17T14:29:09.754Z,100167.34
2023-08-17T14:31:17.320Z,100170.91
2023-08-17T14:33:19.986Z,100174.75
2023-08-17T14:35:22.561Z,100167.94
2023-08-17T14:37:25.641Z,100167.56
2023-08-17T14:39:28.412Z,100159.69
2023-08-17T14:41:33.925Z,100169.44
2023-08-17T14:43:36.841Z,100164.84
2023-08-17T14:45:41.291Z,100160.38
2023-08-17T14:47:44.363Z,100147.72
2023-08-17T14:49:47.046Z,100153.72
2023-08-17T14:51:49.664Z,100154.88
2023-08-17T14:53:52.372Z,100156.44
2023-08-17T15:00:05.764Z,100161.84
2023-08-17T15:02:08.361Z,100160.22
2023-08-17T15:04:10.878Z,100162.19
2023-08-17T15:06:24.271Z,100162.00
2023-08-17T15:08:35.981Z,100159.16
2023-08-17T15:10:38.485Z,100155.84
2023-08-17T15:12:41.141Z,100155.53
2023-08-17T15:14:43.723Z,100154.78
2023-08-17T15:16:46.236Z,100143.34
2023-08-17T15:18:48.743Z,100153.56
2023-08-17T15:20:51.340Z,100161.06
2023-08-17T15:22:53.890Z,100151.69
2023-08-17T15:24:56.412Z,100147.72
2023-08-17T15:26:59.004Z,100150.44
2023-08-17T15:29:01.521Z,100143.63
2023-08-17T15:31:10.698Z,100136.63
2023-08-17T15:33:13.276Z,100135.84
2023-08-17T15:35:15.978Z,100137.56
2023-08-17T15:37:18.467Z,100133.81
2023-08-17T15:39:21.100Z,100133.88
2023-08-17T15:41:23.628Z,100122.44
2023-08-17T15:43:26.241Z,100127.06
2023-08-17T15:45:29.558Z,100123.09
2023-08-17T15:47:32.277Z,100129.38
2023-08-17T15:49:34.813Z,100134.88
2023-08-17T15:51:37.359Z,100130.09
2023-08-17T15:53:44.790Z,100126.78
2023-08-17T15:55:47.376Z,100118.19
2023-08-17T15:57:51.048Z,100117.78
2023-08-17T15:59:54.070Z,100117.59
2023-08-17T16:01:56.584Z,100117.47
2023-08-17T16:03:59.171Z,100114.97
2023-08-17T16:06:01.703Z,100108.53
2023-08-17T16:08:04.382Z,100111.72
2023-08-17T16:10:07.726Z,100102.75
2023-08-17T16:12:11.478Z,100110.56
2023-08-17T16:14:13.981Z,100106.56
2023-08-17T16:16:16.787Z,100104.72
2023-08-17T16:18:19.351Z,100099.31
2023-08-17T16:20:22.130Z,100099.09
2023-08-17T16:22:24.685Z,100097.88
2023-08-17T16:24:27.821Z,100085.16
2023-08-17T16:26:34.326Z,100081.75
2023-08-17T16:28:37.314Z,100081.41
2023-08-17T16:30:41.789Z,100077.00
2023-08-17T16:32:44.311Z,100069.03
2023-08-17T16:34:49.027Z,100068.00
2023-08-17T16:36:51.517Z,100074.31
2023-08-17T16:38:55.677Z,100067.84
2023-08-17T16:40:58.533Z,100067.59
2023-08-17T16:43:01.597Z,100061.34
2023-08-17T16:45:04.888Z,100057.34
2023-08-17T16:47:12.640Z,100055.06
2023-08-17T16:49:15.142Z,100046.25
2023-08-17T16:51:17.634Z,100043.75
2023-08-17T16:53:20.878Z,100047.53
2023-08-17T16:55:23.449Z,100044.16
2023-08-17T16:57:26.277Z,100043.75
2023-08-17T16:59:29.161Z,100030.75
2023-08-17T17:01:31.756Z,100027.78
2023-08-17T17:03:34.237Z,100032.88
2023-08-17T17:05:36.828Z,100038.75
2023-08-17T17:07:39.363Z,100024.88
2023-08-17T17:09:41.892Z,100027.22
2023-08-17T17:11:44.460Z,100022.78
2023-08-17T17:13:46.957Z,100016.91
2023-08-17T17:15:49.467Z,100012.28
2023-08-17T17:17:52.066Z,100008.91
2023-08-17T17:19:54.648Z,100005.53
2023-08-17T17:21:57.184Z,100009.72
2023-08-17T17:23:59.693Z,100000.88
2023-08-17T17:26:08.941Z,99994.97
2023-08-17T17:28:11.490Z,99992.44
2023-08-17T17:30:14.248Z,99986.50
2023-08-17T17:32:16.914Z,99988.38
2023-08-17T17:34:19.858Z,99985.63
2023-08-17T17:36:22.553Z,99979.78
2023-08-17T17:38:25.039Z,99978.06
2023-08-17T17:40:27.514Z,99975.13
2023-08-17T17:42:30.028Z,99965.06
2023-08-17T17:44:32.716Z,99974.03
2023-08-17T17:46:35.491Z,99967.53
2023-08-17T17:48:38.205Z,99970.03
2023-08-17T17:50:40.791Z,99966.47
2023-08-17T17:52:44.318Z,99958.91
2023-08-17T17:54:48.152Z,99960.41
2023-08-17T17:56:51.240Z,99970.88
2023-08-17T17:58:53.979Z,99971.75
2023-08-17T18:00:56.620Z,99972.81
2023-08-17T18:03:19.679Z,99967.78
2023-08-17T18:05:23.504Z,99956.66
2023-08-17T18:07:28.154Z,99961.47
2023-08-17T18:09:31.412Z,99955.81
2023-08-17T18:11:33.969Z,99952.03
2023-08-17T18:13:36.469Z,99952.47
2023-08-17T18:15:39.916Z,99959.59
2023-08-17T18:17:42.452Z,99944.88
2023-08-17T18:19:44.991Z,99940.50
2023-08-17T18:21:47.467Z,99939.44
2023-08-17T18:23:50.952Z,99949.91
2023-08-17T18:25:53.450Z,99941.91
2023-08-17T18:27:55.954Z,99953.25
2023-08-17T18:29:58.435Z,99954.03
2023-08-17T18:32:00.931Z,99959.69
2023-08-17T18:34:03.435Z,99953.56
2023-08-17T18:36:06.086Z,99955.44
2023-08-17T18:38:08.634Z,99944.00
2023-08-17T18:40:12.544Z,99931.16
2023-08-17T18:42:16.170Z,99931.78
2023-08-17T18:44:18.759Z,99922.47
2023-08-17T18:46:21.551Z,99921.34
2023-08-17T18:48:24.107Z,99912.31
2023-08-17T18:50:29.360Z,99907.03
2023-08-17T18:52:31.568Z,99910.59
2023-08-17T18:54:37.492Z,99910.53
2023-08-17T18:56:40.679Z,99910.44
2023-08-17T18:58:43.196Z,99904.31
2023-08-17T19:00:45.743Z,99893.78
2023-08-17T19:02:48.346Z,99892.72
2023-08-17T19:04:51.137Z,99889.06
2023-08-17T19:06:53.606Z,99879.81
2023-08-17T19:08:56.220Z,99877.22
2023-08-17T19:10:58.773Z,99865.63
2023-08-17T19:13:01.311Z,99865.03
2023-08-17T19:15:04.077Z,99871.94
2023-08-17T19:17:06.633Z,99871.47
2023-08-17T19:19:09.162Z,99862.81
2023-08-17T19:21:11.686Z,99862.59
2023-08-17T19:23:14.182Z,99853.56
2023-08-17T19:25:16.876Z,99852.66
2023-08-17T19:27:19.627Z,99852.44
2023-08-17T19:29:22.277Z,99844.22
2023-08-17T19:31:24.847Z,99840.66
2023-08-17T19:33:27.449Z,99843.50
2023-08-17T19:35:30.306Z,99834.69
2023-08-17T19:37:34.033Z,99853.84
2023-08-17T19:39:36.887Z,99848.09
2023-08-17T19:41:41.819Z,99839.28
2023-08-17T19:43:44.300Z,99832.97
2023-08-17T19:45:47.278Z,99828.72
2023-08-17T19:47:49.979Z,99833.44
2023-08-17T19:49:52.518Z,99839.44
2023-08-17T19:51:55.876Z,99833.13
2023-08-17T19:53:58.495Z,99836.91
2023-08-17T19:56:01.563Z,99836.09
2023-08-17T19:58:04.270Z,99838.81
2023-08-17T20:00:10.485Z,99836.09
2023-08-17T20:02:13.031Z,99825.72
2023-08-17T20:04:15.534Z,99815.63
2023-08-17T20:06:18.264Z,99818.59
2023-08-17T20:08:20.847Z,99818.03
2023-08-17T20:10:23.387Z,99816.13
2023-08-17T20:12:25.950Z,99818.16
2023-08-17T20:14:31.294Z,99815.41
2023-08-17T20:16:34.075Z,99822.16
2023-08-17T20:18:36.624Z,99827.56
2023-08-17T20:20:39.232Z,99819.38
2023-08-17T20:22:41.875Z,99815.81
2023-08-17T20:24:44.834Z,99820.97
2023-08-17T20:26:47.439Z,99823.47
2023-08-17T20:28:50.045Z,99803.88
2023-08-17T20:31:01.635Z,99795.38
2023-08-17T20:33:05.062Z,99797.22
2023-08-17T20:35:08.045Z,99798.44
2023-08-17T20:37:10.586Z,99795.34
2023-08-17T20:39:13.289Z,99791.56
2023-08-17T20:41:15.856Z,99781.22
2023-08-17T20:43:18.933Z,99788.50
2023-08-17T20:45:21.615Z,99789.34
2023-08-17T20:47:24.934Z,99799.69
2023-08-17T20:49:27.599Z,99794.53
2023-08-17T20:51:30.130Z,99800.81
2023-08-17T20:53:32.865Z,99789.88
2023-08-17T20:55:37.803Z,99779.94
2023-08-17T20:57:40.360Z,99786.38
2023-08-17T20:59:42.928Z,99788.03
2023-08-17T21:01:46.219Z,99776.81
2023-08-17T21:03:48.862Z,99780.16
2023-08-17T21:05:51.468Z,99773.03
2023-08-17T21:07:54.281Z,99778.94
2023-08-17T21:09:57.002Z,99781.34
2023-08-17T21:12:00.565Z,99779.97
2023-08-17T21:14:04.070Z,99770.31
2023-08-17T21:16:08.791Z,99777.16
2023-08-17T21:18:11.352Z,99774.09
2023-08-17T21:20:14.478Z,99772.69
2023-08-17T21:22:17.023Z,99767.50
2023-08-17T21:24:19.734Z,99768.84
2023-08-17T21:26:22.272Z,99763.03
2023-08-17T21:28:24.798Z,99757.72
2023-08-17T21:30:28.740Z,99759.28
2023-08-17T21:32:31.279Z,99754.66
2023-08-17T21:34:33.802Z,99758.94
2023-08-17T21:36:36.333Z,99770.63
2023-08-17T21:38:38.858Z,99770.50
2023-08-17T21:40:41.373Z,99768.47
2023-08-17T21:42:43.985Z,99770.03
2023-08-17T21:44:46.512Z,99780.25
2023-08-17T21:46:49.038Z,99769.53
2023-08-17T21:48:51.604Z,99764.75
2023-08-17T21:50:54.288Z,99771.06
2023-08-17T21:52:58.461Z,99760.22
2023-08-17T21:55:00.988Z,99758.41
2023-08-17T21:57:03.511Z,99752.78
2023-08-17T21:59:06.006Z,99745.50
2023-08-17T22:01:09.926Z,99741.34
2023-08-17T22:03:14.253Z,99745.88
2023-08-17T22:05:17.039Z,99749.38
2023-08-17T22:07:19.620Z,99759.94
2023-08-17T22:09:22.157Z,99755.53
2023-08-17T22:11:24.693Z,99751.75
2023-08-17T22:13:27.258Z,99747.34
2023-08-17T22:15:29.844Z,99754.94
2023-08-17T22:17:32.441Z,99741.94
2023-08-17T22:19:35.131Z,99743.81
2023-08-17T22:21:37.668Z,99740.88
2023-08-17T22:23:40.174Z,99735.41
2023-08-17T22:25:42.680Z,99730.84
2023-08-17T22:27:45.240Z,99729.59
2023-08-17T22:29:47.743Z,99721.50
2023-08-17T22:31:50.319Z,99725.53
2023-08-17T22:33:52.800Z,99721.38
2023-08-17T22:35:55.403Z,99720.53
2023-08-17T22:37:57.976Z,99717.38
2023-08-17T22:40:00.483Z,99720.72
2023-08-17T22:42:03.439Z,99723.91
2023-08-17T22:44:06.282Z,99724.66
2023-08-17T22:46:08.827Z,99716.69
2023-08-17T22:48:11.428Z,99715.84
2023-08-17T22:50:14.071Z,99713.13
2023-08-17T22:52:16.571Z,99716.78
2023-08-17T22:54:19.067Z,99721.88
2023-08-17T22:56:21.568Z,99720.88
2023-08-17T22:58:24.089Z,99731.22
2023-08-17T23:00:26.627Z,99730.88
2023-08-17T23:02:29.226Z,99722.34
2023-08-17T23:04:31.736Z,99717.72
2023-08-17T23:06:34.271Z,99723.41
2023-08-17T23:08:37.296Z,99725.53
2023-08-17T23:10:39.795Z,99732.81
2023-08-17T23:12:42.393Z,99739.19
2023-08-17T23:14:44.908Z,99723.63
2023-08-17T23:16:47.747Z,99704.09
2023-08-17T23:18:50.339Z,99695.91
2023-08-17T23:20:53.633Z,99707.50
2023-08-17T23:22:56.151Z,99700.59
2023-08-17T23:24:58.736Z,99709.69
2023-08-17T23:27:01.267Z,99698.81
2023-08-17T23:29:03.788Z,99690.47
2023-08-17T23:31:06.335Z,99705.44
2023-08-17T23:33:10.649Z,99701.53
2023-08-17T23:35:13.223Z,99686.44
2023-08-17T23:37:15.740Z,99692.31
2023-08-17T23:39:18.552Z,99683.16
2023-08-17T23:41:21.122Z,99684.44
2023-08-17T23:43:23.656Z,99685.31
2023-08-17T23:45:26.454Z,99686.13